sensor_id;sensor_type;location;lat;lon;timestamp;pressure;altitude;pressure_sealevel;temperature;humidity
6433;BME280;3249;42.690;23.260;2023-02-17T00:01:43;95229.94;;;0.24;100.00
6433;BME280;3249;42.690;23.260;2023-02-17T00:04:12;95230.22;;;0.31;100.00
6433;BME280;3249;42.690;23.260;2023-02-17T00:06:41;95231.41;;;0.46;100.00
6433;BME280;3249;42.690;23.260;2023-02-17T00:09:10;95232.34;;;0.35;100.00
6433;BME280;3249;42.690;23.260;2023-02-17T00:11:42;95229.03;;;0.35;100.00
6433;BME280;3249;42.690;23.260;2023-02-17T00:14:12;95229.66;;;0.37;100.00
6433;BME280;3249;42.690;23.260;2023-02-17T00:16:41;95230.09;;;0.51;100.00
6433;BME280;3249;42.690;23.260;2023-02-17T00:19:11;95233.94;;;0.27;100.00
6433;BME280;3249;42.690;23.260;2023-02-17T00:21:53;95237.72;;;0.02;100.00
6433;BME280;3249;42.690;23.260;2023-02-17T00:24:23;95229.78;;;0.16;100.00
6433;BME280;3249;42.690;23.260;2023-02-17T00:26:55;95215.94;;;0.30;100.00
6433;BME280;3249;42.690;23.260;2023-02-17T00:29:25;95217.69;;;0.39;100.00
6433;BME280;3249;42.690;23.260;2023-02-17T00:31:54;95219.50;;;0.17;100.00
6433;BME280;3249;42.690;23.260;2023-02-17T00:34:23;95216.41;;;-0.05;100.00
6433;BME280;3249;42.690;23.260;2023-02-17T00:36:52;95208.31;;;0.01;100.00
6433;BME280;3249;42.690;23.260;2023-02-17T00:39:21;95203.53;;;0.17;100.00
6433;BME280;3249;42.690;23.260;2023-02-17T00:41:50;95205.97;;;0.28;100.00
6433;BME280;3249;42.690;23.260;2023-02-17T00:44:23;95195.03;;;0.37;100.00
6433;BME280;3249;42.690;23.260;2023-02-17T00:46:52;95188.84;;;0.01;100.00
6433;BME280;3249;42.690;23.260;2023-02-17T00:49:23;95192.53;;;-0.22;100.00
6433;BME280;3249;42.690;23.260;2023-02-17T00:51:53;95173.25;;;-0.04;100.00
6433;BME280;3249;42.690;23.260;2023-02-17T00:54:21;95193.16;;;0.20;100.00
6433;BME280;3249;42.690;23.260;2023-02-17T00:56:50;95203.13;;;0.22;100.00
6433;BME280;3249;42.690;23.260;2023-02-17T00:59:22;95202.91;;;0.44;100.00
6433;BME280;3249;42.690;23.260;2023-02-17T01:01:51;95193.28;;;0.47;100.00
6433;BME280;3249;42.690;23.260;2023-02-17T01:04:20;95190.78;;;0.66;100.00
6433;BME280;3249;42.690;23.260;2023-02-17T01:06:49;95201.28;;;0.81;100.00
6433;BME280;3249;42.690;23.260;2023-02-17T01:09:18;95199.94;;;0.96;100.00
6433;BME280;3249;42.690;23.260;2023-02-17T01:11:48;95191.66;;;1.03;100.00
6433;BME280;3249;42.690;23.260;2023-02-17T01:14:17;95187.41;;;1.04;100.00
6433;BME280;3249;42.690;23.260;2023-02-17T01:16:49;95196.72;;;1.13;100.00
6433;BME280;3249;42.690;23.260;2023-02-17T01:19:19;95195.94;;;1.12;100.00
6433;BME280;3249;42.690;23.260;2023-02-17T01:21:48;95196.59;;;1.14;100.00
6433;BME280;3249;42.690;23.260;2023-02-17T01:24:17;95152.88;;;-0.02;100.00
6433;BME280;3249;42.690;23.260;2023-02-17T01:26:46;95198.34;;;0.38;100.00
6433;BME280;3249;42.690;23.260;2023-02-17T01:29:15;95193.84;;;0.51;100.00
6433;BME280;3249;42.690;23.260;2023-02-17T01:31:44;95187.03;;;0.61;100.00
6433;BME280;3249;42.690;23.260;2023-02-17T01:34:16;95176.25;;;0.59;100.00
6433;BME280;3249;42.690;23.260;2023-02-17T01:36:45;95145.59;;;0.14;100.00
6433;BME280;3249;42.690;23.260;2023-02-17T01:39:14;95181.97;;;0.23;100.00
6433;BME280;3249;42.690;23.260;2023-02-17T01:41:45;95182.88;;;0.22;100.00
6433;BME280;3249;42.690;23.260;2023-02-17T01:44:17;95183.97;;;0.29;100.00
6433;BME280;3249;42.690;23.260;2023-02-17T01:46:49;95184.63;;;0.12;100.00
6433;BME280;3249;42.690;23.260;2023-02-17T01:49:34;95184.06;;;-0.02;100.00
6433;BME280;3249;42.690;23.260;2023-02-17T01:52:08;95175.69;;;0.17;100.00
6433;BME280;3249;42.690;23.260;2023-02-17T01:54:41;95182.22;;;0.20;100.00
6433;BME280;3249;42.690;23.260;2023-02-17T01:57:15;95159.81;;;0.05;100.00
6433;BME280;3249;42.690;23.260;2023-02-17T01:59:45;95176.72;;;-0.05;100.00
6433;BME280;3249;42.690;23.260;2023-02-17T02:02:15;95165.56;;;0.17;100.00
6433;BME280;3249;42.690;23.260;2023-02-17T02:04:50;95171.44;;;0.27;100.00
6433;BME280;3249;42.690;23.260;2023-02-17T02:07:22;95163.03;;;0.17;100.00
6433;BME280;3249;42.690;23.260;2023-02-17T02:09:55;95169.50;;;-0.19;100.00
6433;BME280;3249;42.690;23.260;2023-02-17T02:12:26;95168.44;;;-0.26;100.00
6433;BME280;3249;42.690;23.260;2023-02-17T02:14:58;95164.66;;;-0.41;100.00
6433;BME280;3249;42.690;23.260;2023-02-17T02:17:34;95172.44;;;-0.23;100.00
6433;BME280;3249;42.690;23.260;2023-02-17T02:20:35;95164.47;;;0.00;100.00
6433;BME280;3249;42.690;23.260;2023-02-17T02:23:15;95161.81;;;0.02;100.00
6433;BME280;3249;42.690;23.260;2023-02-17T02:26:06;95166.84;;;-0.08;100.00
6433;BME280;3249;42.690;23.260;2023-02-17T02:28:46;95158.75;;;-0.51;100.00
6433;BME280;3249;42.690;23.260;2023-02-17T02:31:37;95169.75;;;-0.31;100.00
6433;BME280;3249;42.690;23.260;2023-02-17T02:34:16;95174.16;;;-0.14;100.00
6433;BME280;3249;42.690;23.260;2023-02-17T02:36:51;95170.84;;;-0.15;100.00
6433;BME280;3249;42.690;23.260;2023-02-17T02:39:27;95174.22;;;0.05;100.00
6433;BME280;3249;42.690;23.260;2023-02-17T02:42:01;95173.03;;;0.09;100.00
6433;BME280;3249;42.690;23.260;2023-02-17T02:44:31;95171.13;;;-0.18;100.00
6433;BME280;3249;42.690;23.260;2023-02-17T02:47:02;95163.38;;;-0.16;100.00
6433;BME280;3249;42.690;23.260;2023-02-17T02:49:35;95170.94;;;-0.65;100.00
6433;BME280;3249;42.690;23.260;2023-02-17T02:52:09;95163.91;;;-0.92;100.00
6433;BME280;3249;42.690;23.260;2023-02-17T02:54:45;95165.97;;;-0.76;100.00
6433;BME280;3249;42.690;23.260;2023-02-17T02:57:31;95180.91;;;-0.64;100.00
6433;BME280;3249;42.690;23.260;2023-02-17T03:00:11;95151.78;;;-0.68;100.00
6433;BME280;3249;42.690;23.260;2023-02-17T03:02:48;95164.97;;;-0.25;100.00
6433;BME280;3249;42.690;23.260;2023-02-17T03:05:29;95163.38;;;-0.26;100.00
6433;BME280;3249;42.690;23.260;2023-02-17T03:08:03;95162.69;;;-0.28;100.00
6433;BME280;3249;42.690;23.260;2023-02-17T03:10:43;95173.78;;;-0.10;100.00
6433;BME280;3249;42.690;23.260;2023-02-17T03:13:13;95165.25;;;-0.09;100.00
6433;BME280;3249;42.690;23.260;2023-02-17T03:15:43;95173.50;;;-0.26;100.00
6433;BME280;3249;42.690;23.260;2023-02-17T03:18:12;95167.66;;;-0.17;100.00
6433;BME280;3249;42.690;23.260;2023-02-17T03:20:50;95164.13;;;-0.35;100.00
6433;BME280;3249;42.690;23.260;2023-02-17T03:23:19;95166.56;;;-0.24;100.00
6433;BME280;3249;42.690;23.260;2023-02-17T03:25:48;95166.38;;;-0.41;100.00
6433;BME280;3249;42.690;23.260;2023-02-17T03:28:17;95156.97;;;-0.20;100.00
6433;BME280;3249;42.690;23.260;2023-02-17T03:30:47;95168.69;;;-0.29;100.00
6433;BME280;3249;42.690;23.260;2023-02-17T03:33:16;95176.72;;;-0.44;100.00
6433;BME280;3249;42.690;23.260;2023-02-17T03:35:47;95175.09;;;-0.55;100.00
6433;BME280;3249;42.690;23.260;2023-02-17T03:38:16;95162.47;;;-0.55;100.00
6433;BME280;3249;42.690;23.260;2023-02-17T03:40:45;95152.41;;;-0.36;100.00
6433;BME280;3249;42.690;23.260;2023-02-17T03:43:15;95159.63;;;-0.31;100.00
6433;BME280;3249;42.690;23.260;2023-02-17T03:45:44;95162.38;;;-0.44;100.00
6433;BME280;3249;42.690;23.260;2023-02-17T03:48:12;95173.06;;;-0.31;100.00
6433;BME280;3249;42.690;23.260;2023-02-17T03:50:41;95176.16;;;-0.18;100.00
6433;BME280;3249;42.690;23.260;2023-02-17T03:53:13;95153.16;;;-0.05;100.00
6433;BME280;3249;42.690;23.260;2023-02-17T03:55:42;95156.91;;;0.10;100.00
6433;BME280;3249;42.690;23.260;2023-02-17T03:58:11;95157.72;;;0.30;100.00
6433;BME280;3249;42.690;23.260;2023-02-17T04:00:40;95165.03;;;0.33;100.00
6433;BME280;3249;42.690;23.260;2023-02-17T04:03:08;95173.28;;;0.16;100.00
6433;BME280;3249;42.690;23.260;2023-02-17T04:05:37;95170.19;;;-0.17;100.00
6433;BME280;3249;42.690;23.260;2023-02-17T04:08:06;95169.94;;;0.05;100.00
6433;BME280;3249;42.690;23.260;2023-02-17T04:10:38;95174.88;;;0.17;100.00
6433;BME280;3249;42.690;23.260;2023-02-17T04:13:07;95178.63;;;0.22;100.00
6433;BME280;3249;42.690;23.260;2023-02-17T04:15:36;95172.03;;;-0.19;100.00
6433;BME280;3249;42.690;23.260;2023-02-17T04:18:05;95174.00;;;-0.32;100.00
6433;BME280;3249;42.690;23.260;2023-02-17T04:20:33;95168.44;;;-0.26;100.00
6433;BME280;3249;42.690;23.260;2023-02-17T04:23:02;95167.63;;;-0.26;100.00
6433;BME280;3249;42.690;23.260;2023-02-17T04:25:32;95165.38;;;-0.20;100.00
6433;BME280;3249;42.690;23.260;2023-02-17T04:28:05;95167.25;;;-0.22;100.00
6433;BME280;3249;42.690;23.260;2023-02-17T04:30:34;95163.94;;;-0.03;100.00
6433;BME280;3249;42.690;23.260;2023-02-17T04:33:03;95161.22;;;-0.30;100.00
6433;BME280;3249;42.690;23.260;2023-02-17T04:35:32;95152.94;;;-0.42;100.00
6433;BME280;3249;42.690;23.260;2023-02-17T04:38:01;95167.59;;;-0.36;100.00
6433;BME280;3249;42.690;23.260;2023-02-17T04:40:30;95174.03;;;-0.52;100.00
6433;BME280;3249;42.690;23.260;2023-02-17T04:42:59;95171.63;;;-0.24;100.00
6433;BME280;3249;42.690;23.260;2023-02-17T04:45:31;95173.22;;;-0.13;100.00
6433;BME280;3249;42.690;23.260;2023-02-17T04:48:01;95175.88;;;-0.15;100.00
6433;BME280;3249;42.690;23.260;2023-02-17T04:50:31;95168.31;;;-0.54;100.00
6433;BME280;3249;42.690;23.260;2023-02-17T04:52:59;95170.59;;;-0.81;100.00
6433;BME280;3249;42.690;23.260;2023-02-17T04:55:29;95172.59;;;-0.85;100.00
6433;BME280;3249;42.690;23.260;2023-02-17T04:57:58;95171.31;;;-0.70;100.00
6433;BME280;3249;42.690;23.260;2023-02-17T05:00:27;95178.81;;;-0.59;100.00
6433;BME280;3249;42.690;23.260;2023-02-17T05:02:59;95177.75;;;-0.86;100.00
6433;BME280;3249;42.690;23.260;2023-02-17T05:05:28;95181.63;;;-0.62;100.00
6433;BME280;3249;42.690;23.260;2023-02-17T05:07:57;95178.22;;;-0.42;100.00
6433;BME280;3249;42.690;23.260;2023-02-17T05:10:26;95178.66;;;-0.27;100.00
6433;BME280;3249;42.690;23.260;2023-02-17T05:12:54;95171.59;;;-0.73;100.00
6433;BME280;3249;42.690;23.260;2023-02-17T05:15:23;95198.50;;;-0.83;100.00
6433;BME280;3249;42.690;23.260;2023-02-17T05:17:52;95197.97;;;-0.86;100.00
6433;BME280;3249;42.690;23.260;2023-02-17T05:20:24;95204.44;;;-0.73;100.00
6433;BME280;3249;42.690;23.260;2023-02-17T05:22:53;95182.19;;;-0.49;100.00
6433;BME280;3249;42.690;23.260;2023-02-17T05:25:22;95200.38;;;-0.25;100.00
6433;BME280;3249;42.690;23.260;2023-02-17T05:27:51;95214.97;;;-0.38;100.00
6433;BME280;3249;42.690;23.260;2023-02-17T05:30:20;95207.63;;;-0.71;100.00
6433;BME280;3249;42.690;23.260;2023-02-17T05:32:48;95217.59;;;-0.49;100.00
6433;BME280;3249;42.690;23.260;2023-02-17T05:35:18;95224.59;;;-0.22;100.00
6433;BME280;3249;42.690;23.260;2023-02-17T05:37:49;95208.53;;;-0.12;100.00
6433;BME280;3249;42.690;23.260;2023-02-17T05:40:18;95224.13;;;-0.07;100.00
6433;BME280;3249;42.690;23.260;2023-02-17T05:42:47;95226.38;;;-0.04;100.00
6433;BME280;3249;42.690;23.260;2023-02-17T05:45:16;95222.69;;;0.00;100.00
6433;BME280;3249;42.690;23.260;2023-02-17T05:47:45;95228.97;;;0.16;100.00
6433;BME280;3249;42.690;23.260;2023-02-17T05:50:14;95234.06;;;0.25;100.00
6433;BME280;3249;42.690;23.260;2023-02-17T05:52:43;95215.94;;;0.30;100.00
6433;BME280;3249;42.690;23.260;2023-02-17T05:55:15;95231.00;;;-0.18;100.00
6433;BME280;3249;42.690;23.260;2023-02-17T05:57:44;95232.41;;;-0.35;100.00
6433;BME280;3249;42.690;23.260;2023-02-17T06:00:16;95239.66;;;-0.51;100.00
6433;BME280;3249;42.690;23.260;2023-02-17T06:02:45;95239.44;;;-0.38;100.00
6433;BME280;3249;42.690;23.260;2023-02-17T06:05:14;95237.19;;;-0.02;100.00
6433;BME280;3249;42.690;23.260;2023-02-17T06:07:43;95238.56;;;0.22;100.00
6433;BME280;3249;42.690;23.260;2023-02-17T06:10:15;95229.78;;;0.26;100.00
6433;BME280;3249;42.690;23.260;2023-02-17T06:12:44;95236.09;;;0.50;100.00
6433;BME280;3249;42.690;23.260;2023-02-17T06:15:13;95230.63;;;0.55;100.00
6433;BME280;3249;42.690;23.260;2023-02-17T06:17:42;95233.56;;;0.69;100.00
6433;BME280;3249;42.690;23.260;2023-02-17T06:20:11;95216.91;;;0.48;100.00
6433;BME280;3249;42.690;23.260;2023-02-17T06:22:44;95217.03;;;0.46;100.00
6433;BME280;3249;42.690;23.260;2023-02-17T06:25:16;95230.75;;;0.44;100.00
6433;BME280;3249;42.690;23.260;2023-02-17T06:27:45;95234.91;;;0.83;100.00
6433;BME280;3249;42.690;23.260;2023-02-17T06:30:14;95243.03;;;1.05;100.00
6433;BME280;3249;42.690;23.260;2023-02-17T06:32:43;95252.22;;;1.06;100.00
6433;BME280;3249;42.690;23.260;2023-02-17T06:35:12;95254.38;;;1.11;100.00
6433;BME280;3249;42.690;23.260;2023-02-17T06:37:41;95249.81;;;1.05;100.00
6433;BME280;3249;42.690;23.260;2023-02-17T06:40:11;95252.34;;;1.05;100.00
6433;BME280;3249;42.690;23.260;2023-02-17T06:42:43;95226.88;;;1.06;100.00
6433;BME280;3249;42.690;23.260;2023-02-17T06:45:12;95258.59;;;1.39;100.00
6433;BME280;3249;42.690;23.260;2023-02-17T06:47:41;95258.00;;;1.64;100.00
6433;BME280;3249;42.690;23.260;2023-02-17T06:50:10;95261.13;;;1.85;100.00
6433;BME280;3249;42.690;23.260;2023-02-17T06:52:39;95255.78;;;1.88;100.00
6433;BME280;3249;42.690;23.260;2023-02-17T06:55:09;95234.34;;;2.00;100.00
6433;BME280;3249;42.690;23.260;2023-02-17T06:57:38;95265.19;;;2.32;100.00
6433;BME280;3249;42.690;23.260;2023-02-17T07:00:10;95266.81;;;2.50;100.00
6433;BME280;3249;42.690;23.260;2023-02-17T07:02:39;95272.66;;;2.60;100.00
6433;BME280;3249;42.690;23.260;2023-02-17T07:05:11;95252.78;;;2.29;100.00
6433;BME280;3249;42.690;23.260;2023-02-17T07:07:40;95267.84;;;2.57;100.00
6433;BME280;3249;42.690;23.260;2023-02-17T07:10:10;95266.00;;;2.77;100.00
6433;BME280;3249;42.690;23.260;2023-02-17T07:12:39;95273.78;;;2.93;100.00
6433;BME280;3249;42.690;23.260;2023-02-17T07:15:11;95285.47;;;3.21;100.00
6433;BME280;3249;42.690;23.260;2023-02-17T07:17:40;95274.56;;;3.11;100.00
6433;BME280;3249;42.690;23.260;2023-02-17T07:20:10;95276.59;;;3.25;100.00
6433;BME280;3249;42.690;23.260;2023-02-17T07:22:39;95292.66;;;3.51;100.00
6433;BME280;3249;42.690;23.260;2023-02-17T07:25:09;95283.78;;;3.55;100.00
6433;BME280;3249;42.690;23.260;2023-02-17T07:27:38;95281.31;;;3.63;100.00
6433;BME280;3249;42.690;23.260;2023-02-17T07:30:08;95296.19;;;3.75;100.00
6433;BME280;3249;42.690;23.260;2023-02-17T07:32:40;95294.88;;;3.97;100.00
6433;BME280;3249;42.690;23.260;2023-02-17T07:35:09;95294.78;;;4.06;100.00
6433;BME280;3249;42.690;23.260;2023-02-17T07:37:38;95302.81;;;4.19;97.63
6433;BME280;3249;42.690;23.260;2023-02-17T07:40:08;95309.63;;;4.19;98.29
6433;BME280;3249;42.690;23.260;2023-02-17T07:42:37;95315.41;;;4.21;99.72
6433;BME280;3249;42.690;23.260;2023-02-17T07:45:07;95313.59;;;4.47;96.49
6433;BME280;3249;42.690;23.260;2023-02-17T07:47:39;95296.63;;;4.30;96.82
6433;BME280;3249;42.690;23.260;2023-02-17T07:50:08;95272.28;;;4.35;97.34
6433;BME280;3249;42.690;23.260;2023-02-17T07:52:38;95286.72;;;4.68;95.24
6433;BME280;3249;42.690;23.260;2023-02-17T07:55:07;95302.88;;;4.85;95.75
6433;BME280;3249;42.690;23.260;2023-02-17T07:57:36;95302.75;;;5.11;93.58
6433;BME280;3249;42.690;23.260;2023-02-17T08:00:06;95305.78;;;5.22;92.30
6433;BME280;3249;42.690;23.260;2023-02-17T08:02:44;95303.25;;;5.38;91.11
6433;BME280;3249;42.690;23.260;2023-02-17T08:05:13;95309.63;;;5.50;91.08
6433;BME280;3249;42.690;23.260;2023-02-17T08:07:42;95298.16;;;5.46;90.75
6433;BME280;3249;42.690;23.260;2023-02-17T08:10:11;95295.94;;;5.67;91.05
6433;BME280;3249;42.690;23.260;2023-02-17T08:12:53;95312.53;;;5.95;87.14
6433;BME280;3249;42.690;23.260;2023-02-17T08:15:34;95278.44;;;6.19;85.46
6433;BME280;3249;42.690;23.260;2023-02-17T08:18:05;95305.78;;;6.57;84.71
6433;BME280;3249;42.690;23.260;2023-02-17T08:20:34;95296.41;;;6.80;74.29
6433;BME280;3249;42.690;23.260;2023-02-17T08:23:03;95314.09;;;7.20;64.60
6433;BME280;3249;42.690;23.260;2023-02-17T08:25:33;95312.94;;;7.67;54.01
6433;BME280;3249;42.690;23.260;2023-02-17T08:28:03;95309.66;;;7.96;52.70
6433;BME280;3249;42.690;23.260;2023-02-17T08:30:34;95292.78;;;8.01;51.88
6433;BME280;3249;42.690;23.260;2023-02-17T08:33:05;95326.41;;;8.35;50.46
6433;BME280;3249;42.690;23.260;2023-02-17T08:35:34;95307.41;;;8.59;46.70
6433;BME280;3249;42.690;23.260;2023-02-17T08:38:03;95324.16;;;8.90;43.46
6433;BME280;3249;42.690;23.260;2023-02-17T08:40:33;95321.56;;;9.05;43.01
6433;BME280;3249;42.690;23.260;2023-02-17T08:43:02;95322.69;;;9.17;42.79
6433;BME280;3249;42.690;23.260;2023-02-17T08:45:34;95310.34;;;9.27;41.43
6433;BME280;3249;42.690;23.260;2023-02-17T08:48:06;95323.75;;;9.43;41.32
6433;BME280;3249;42.690;23.260;2023-02-17T08:50:36;95211.13;;;8.84;39.56
6433;BME280;3249;42.690;23.260;2023-02-17T08:53:05;95338.44;;;9.71;39.20
6433;BME280;3249;42.690;23.260;2023-02-17T08:55:39;95321.91;;;9.80;38.41
6433;BME280;3249;42.690;23.260;2023-02-17T08:58:08;95333.47;;;9.90;37.16
6433;BME280;3249;42.690;23.260;2023-02-17T09:00:37;95331.94;;;9.96;36.88
6433;BME280;3249;42.690;23.260;2023-02-17T09:03:11;95329.22;;;10.04;36.12
6433;BME280;3249;42.690;23.260;2023-02-17T09:05:41;95331.88;;;10.10;35.67
6433;BME280;3249;42.690;23.260;2023-02-17T09:08:13;95325.66;;;10.05;35.16
6433;BME280;3249;42.690;23.260;2023-02-17T09:10:42;95330.56;;;10.21;34.78
6433;BME280;3249;42.690;23.260;2023-02-17T09:13:11;95332.59;;;10.25;35.01
6433;BME280;3249;42.690;23.260;2023-02-17T09:15:40;95329.06;;;10.33;35.01
6433;BME280;3249;42.690;23.260;2023-02-17T09:18:12;95307.06;;;10.30;34.70
6433;BME280;3249;42.690;23.260;2023-02-17T09:20:41;95329.56;;;10.49;34.61
6433;BME280;3249;42.690;23.260;2023-02-17T09:23:10;95330.16;;;10.51;34.33
6433;BME280;3249;42.690;23.260;2023-02-17T09:25:39;95330.81;;;10.60;34.69
6433;BME280;3249;42.690;23.260;2023-02-17T09:28:08;95333.78;;;10.63;34.75
6433;BME280;3249;42.690;23.260;2023-02-17T09:30:38;95337.59;;;10.74;34.35
6433;BME280;3249;42.690;23.260;2023-02-17T09:33:07;95330.50;;;10.76;34.10
6433;BME280;3249;42.690;23.260;2023-02-17T09:35:39;95346.56;;;10.84;33.87
6433;BME280;3249;42.690;23.260;2023-02-17T09:38:09;95339.59;;;10.72;34.37
6433;BME280;3249;42.690;23.260;2023-02-17T09:40:44;95331.28;;;10.76;33.03
6433;BME280;3249;42.690;23.260;2023-02-17T09:43:15;95333.66;;;10.78;33.15
6433;BME280;3249;42.690;23.260;2023-02-17T09:45:47;95345.00;;;10.90;34.17
6433;BME280;3249;42.690;23.260;2023-02-17T09:48:20;95334.50;;;10.91;32.49
6433;BME280;3249;42.690;23.260;2023-02-17T09:50:56;95339.66;;;10.91;32.78
6433;BME280;3249;42.690;23.260;2023-02-17T09:53:30;95330.72;;;10.87;32.64
6433;BME280;3249;42.690;23.260;2023-02-17T09:56:04;95323.63;;;10.89;33.76
6433;BME280;3249;42.690;23.260;2023-02-17T09:58:39;95328.19;;;11.00;32.84
6433;BME280;3249;42.690;23.260;2023-02-17T10:01:14;95328.09;;;11.15;32.23
6433;BME280;3249;42.690;23.260;2023-02-17T10:03:46;95338.22;;;11.23;31.49
6433;BME280;3249;42.690;23.260;2023-02-17T10:06:23;95330.25;;;11.24;31.71
6433;BME280;3249;42.690;23.260;2023-02-17T10:08:58;95319.19;;;11.24;31.60
6433;BME280;3249;42.690;23.260;2023-02-17T10:11:31;95326.72;;;11.32;30.93
6433;BME280;3249;42.690;23.260;2023-02-17T10:14:04;95317.81;;;11.28;30.78
6433;BME280;3249;42.690;23.260;2023-02-17T10:16:38;95320.38;;;11.34;30.90
6433;BME280;3249;42.690;23.260;2023-02-17T10:19:13;95310.06;;;11.28;30.94
6433;BME280;3249;42.690;23.260;2023-02-17T10:21:54;95315.03;;;11.36;30.83
6433;BME280;3249;42.690;23.260;2023-02-17T10:24:25;95312.47;;;11.29;30.79
6433;BME280;3249;42.690;23.260;2023-02-17T10:29:50;95306.13;;;11.51;30.91
6433;BME280;3249;42.690;23.260;2023-02-17T10:32:25;95304.78;;;11.62;30.85
6433;BME280;3249;42.690;23.260;2023-02-17T10:35:09;95268.47;;;11.50;30.59
6433;BME280;3249;42.690;23.260;2023-02-17T10:37:47;95300.63;;;11.74;30.42
6433;BME280;3249;42.690;23.260;2023-02-17T10:40:19;95303.44;;;11.79;30.43
6433;BME280;3249;42.690;23.260;2023-02-17T10:42:51;95286.16;;;11.79;30.77
6433;BME280;3249;42.690;23.260;2023-02-17T10:45:27;95262.94;;;11.73;30.34
6433;BME280;3249;42.690;23.260;2023-02-17T10:48:02;95286.16;;;11.86;30.10
6433;BME280;3249;42.690;23.260;2023-02-17T10:50:32;95279.22;;;11.93;30.11
6433;BME280;3249;42.690;23.260;2023-02-17T10:53:11;95280.81;;;12.00;30.24
6433;BME280;3249;42.690;23.260;2023-02-17T10:55:52;95281.56;;;12.07;30.60
6433;BME280;3249;42.690;23.260;2023-02-17T10:58:26;95261.94;;;11.93;30.70
6433;BME280;3249;42.690;23.260;2023-02-17T11:00:56;95267.69;;;12.08;30.46
6433;BME280;3249;42.690;23.260;2023-02-17T11:03:28;95274.25;;;12.04;30.92
6433;BME280;3249;42.690;23.260;2023-02-17T11:05:59;95248.44;;;11.85;30.64
6433;BME280;3249;42.690;23.260;2023-02-17T11:08:36;95266.91;;;11.95;30.83
6433;BME280;3249;42.690;23.260;2023-02-17T11:11:15;95255.59;;;11.96;30.74
6433;BME280;3249;42.690;23.260;2023-02-17T11:13:57;95270.28;;;12.08;31.05
6433;BME280;3249;42.690;23.260;2023-02-17T11:16:33;95256.19;;;12.11;31.21
6433;BME280;3249;42.690;23.260;2023-02-17T11:19:05;95259.75;;;12.16;30.56
6433;BME280;3249;42.690;23.260;2023-02-17T11:21:34;95267.47;;;12.23;31.15
6433;BME280;3249;42.690;23.260;2023-02-17T11:24:13;95262.09;;;12.31;31.05
6433;BME280;3249;42.690;23.260;2023-02-17T11:26:42;95261.69;;;12.40;30.83
6433;BME280;3249;42.690;23.260;2023-02-17T11:29:15;95261.25;;;12.43;30.79
6433;BME280;3249;42.690;23.260;2023-02-17T11:31:54;95233.09;;;12.29;31.14
6433;BME280;3249;42.690;23.260;2023-02-17T11:34:25;95255.66;;;12.53;31.00
6433;BME280;3249;42.690;23.260;2023-02-17T11:37:02;95229.09;;;12.33;30.30
6433;BME280;3249;42.690;23.260;2023-02-17T11:39:37;95250.91;;;12.56;30.52
6433;BME280;3249;42.690;23.260;2023-02-17T11:42:14;95202.91;;;12.29;30.64
6433;BME280;3249;42.690;23.260;2023-02-17T11:44:43;95237.38;;;12.54;30.62
6433;BME280;3249;42.690;23.260;2023-02-17T11:47:19;95227.06;;;12.48;30.73
6433;BME280;3249;42.690;23.260;2023-02-17T11:50:04;95225.22;;;12.11;31.29
6433;BME280;3249;42.690;23.260;2023-02-17T11:52:48;95229.16;;;12.13;31.23
6433;BME280;3249;42.690;23.260;2023-02-17T11:55:34;95199.06;;;11.81;30.91
6433;BME280;3249;42.690;23.260;2023-02-17T11:58:16;95220.19;;;12.22;31.19
6433;BME280;3249;42.690;23.260;2023-02-17T12:00:56;95223.13;;;12.39;31.21
6433;BME280;3249;42.690;23.260;2023-02-17T12:03:54;95215.56;;;12.44;30.61
6433;BME280;3249;42.690;23.260;2023-02-17T12:06:36;95218.31;;;12.49;30.38
6433;BME280;3249;42.690;23.260;2023-02-17T12:09:14;95205.63;;;12.47;30.41
6433;BME280;3249;42.690;23.260;2023-02-17T12:11:54;95217.13;;;12.58;30.42
6433;BME280;3249;42.690;23.260;2023-02-17T12:14:47;95206.91;;;12.69;30.32
6433;BME280;3249;42.690;23.260;2023-02-17T12:17:25;95214.47;;;12.71;30.68
6433;BME280;3249;42.690;23.260;2023-02-17T12:20:03;95208.66;;;12.75;30.23
6433;BME280;3249;42.690;23.260;2023-02-17T12:22:44;95198.81;;;12.66;30.75
6433;BME280;3249;42.690;23.260;2023-02-17T12:25:25;95205.31;;;12.75;30.48
6433;BME280;3249;42.690;23.260;2023-02-17T12:28:08;95196.31;;;12.84;30.83
6433;BME280;3249;42.690;23.260;2023-02-17T12:30:48;95188.03;;;12.69;30.33
6433;BME280;3249;42.690;23.260;2023-02-17T12:33:32;95188.47;;;12.66;30.49
6433;BME280;3249;42.690;23.260;2023-02-17T12:36:06;95171.28;;;12.40;30.53
6433;BME280;3249;42.690;23.260;2023-02-17T12:38:40;95164.06;;;12.62;30.34
6433;BME280;3249;42.690;23.260;2023-02-17T12:41:16;95175.31;;;12.67;29.91
6433;BME280;3249;42.690;23.260;2023-02-17T12:43:51;95161.47;;;12.55;30.22
6433;BME280;3249;42.690;23.260;2023-02-17T12:46:24;95155.28;;;12.63;30.16
6433;BME280;3249;42.690;23.260;2023-02-17T12:48:56;95171.53;;;12.76;30.22
6433;BME280;3249;42.690;23.260;2023-02-17T12:51:29;95161.22;;;12.70;30.43
6433;BME280;3249;42.690;23.260;2023-02-17T12:54:06;95157.34;;;12.85;29.55
6433;BME280;3249;42.690;23.260;2023-02-17T12:56:58;95142.19;;;12.95;29.95
6433;BME280;3249;42.690;23.260;2023-02-17T12:59:35;95152.78;;;12.87;30.53
6433;BME280;3249;42.690;23.260;2023-02-17T13:02:09;95146.97;;;12.92;30.73
6433;BME280;3249;42.690;23.260;2023-02-17T13:04:38;95158.00;;;13.12;29.77
6433;BME280;3249;42.690;23.260;2023-02-17T13:07:41;95157.91;;;12.94;29.92
6433;BME280;3249;42.690;23.260;2023-02-17T13:10:26;95152.63;;;13.13;28.70
6433;BME280;3249;42.690;23.260;2023-02-17T13:12:58;95164.28;;;13.22;28.33
6433;BME280;3249;42.690;23.260;2023-02-17T13:15:35;95144.44;;;13.16;28.39
6433;BME280;3249;42.690;23.260;2023-02-17T13:18:06;95152.41;;;13.15;28.66
6433;BME280;3249;42.690;23.260;2023-02-17T13:20:52;95138.88;;;13.13;27.49
6433;BME280;3249;42.690;23.260;2023-02-17T13:23:36;95153.56;;;13.19;27.70
6433;BME280;3249;42.690;23.260;2023-02-17T13:31:58;95150.88;;;13.32;27.88
6433;BME280;3249;42.690;23.260;2023-02-17T13:34:30;95152.47;;;13.33;27.34
6433;BME280;3249;42.690;23.260;2023-02-17T13:37:02;95143.28;;;13.37;27.35
6433;BME280;3249;42.690;23.260;2023-02-17T13:39:42;95144.28;;;13.36;26.74
6433;BME280;3249;42.690;23.260;2023-02-17T13:42:34;95148.88;;;13.34;26.61
6433;BME280;3249;42.690;23.260;2023-02-17T13:45:15;95153.81;;;13.42;26.87
6433;BME280;3249;42.690;23.260;2023-02-17T13:47:49;95150.19;;;13.43;26.62